sensor_id;sensor_type;location;lat;lon;timestamp;temperature;humidity
56123;DHT22;42426;46.104;19.656;2024-02-04T08:45:04;307.50;2304.00
56123;DHT22;42426;46.104;19.656;2024-02-04T08:47:30;307.30;2304.00
56123;DHT22;42426;46.104;19.656;2024-02-04T08:49:56;307.40;2304.00
56123;DHT22;42426;46.104;19.656;2024-02-04T08:52:22;307.40;2304.00
56123;DHT22;42426;46.104;19.656;2024-02-04T08:54:50;307.50;2304.00
56123;DHT22;42426;46.104;19.656;2024-02-04T08:57:16;307.50;2304.00
56123;DHT22;42426;46.104;19.656;2024-02-04T08:59:42;307.50;2304.00
56123;DHT22;42426;46.104;19.656;2024-02-04T09:02:08;307.60;2304.00
56123;DHT22;42426;46.104;19.656;2024-02-04T09:04:33;307.70;2304.00
56123;DHT22;42426;46.104;19.656;2024-02-04T09:07:06;307.80;2304.00
56123;DHT22;42426;46.104;19.656;2024-02-04T09:09:32;308.00;2304.00
56123;DHT22;42426;46.104;19.656;2024-02-04T09:11:58;308.00;2304.00
56123;DHT22;42426;46.104;19.656;2024-02-04T09:14:24;308.00;2304.00
56123;DHT22;42426;46.104;19.656;2024-02-04T09:16:49;308.00;2304.00
56123;DHT22;42426;46.104;19.656;2024-02-04T09:19:15;308.10;2304.00
56123;DHT22;42426;46.104;19.656;2024-02-04T09:21:41;308.10;2304.00
56123;DHT22;42426;46.104;19.656;2024-02-04T09:24:07;308.10;2304.00
56123;DHT22;42426;46.104;19.656;2024-02-04T09:26:33;308.10;2304.00
56123;DHT22;42426;46.104;19.656;2024-02-04T09:28:59;332.80;2329.60
56123;DHT22;42426;46.104;19.656;2024-02-04T10:03:29;333.20;2329.60
56123;DHT22;42426;46.104;19.656;2024-02-04T10:05:54;333.10;2329.60
56123;DHT22;42426;46.104;19.656;2024-02-04T10:08:20;333.10;2329.60
56123;DHT22;42426;46.104;19.656;2024-02-04T10:10:47;333.20;2329.60
56123;DHT22;42426;46.104;19.656;2024-02-04T10:13:13;333.30;2329.60
56123;DHT22;42426;46.104;19.656;2024-02-04T10:15:38;333.30;2329.60
56123;DHT22;42426;46.104;19.656;2024-02-04T10:18:06;333.30;2329.60
56123;DHT22;42426;46.104;19.656;2024-02-04T10:20:33;333.30;2329.60
56123;DHT22;42426;46.104;19.656;2024-02-04T10:22:59;333.40;2329.60
56123;DHT22;42426;46.104;19.656;2024-02-04T10:25:25;333.40;2329.60
56123;DHT22;42426;46.104;19.656;2024-02-04T10:27:51;333.50;2329.60
56123;DHT22;42426;46.104;19.656;2024-02-04T10:30:21;333.40;2329.60
56123;DHT22;42426;46.104;19.656;2024-02-04T10:32:51;333.40;2329.60
56123;DHT22;42426;46.104;19.656;2024-02-04T10:35:17;333.50;2329.60
56123;DHT22;42426;46.104;19.656;2024-02-04T10:37:45;333.60;2329.60
56123;DHT22;42426;46.104;19.656;2024-02-04T10:40:11;333.60;2329.60
56123;DHT22;42426;46.104;19.656;2024-02-04T10:42:38;333.60;2329.60
56123;DHT22;42426;46.104;19.656;2024-02-04T10:45:08;333.60;2329.60
56123;DHT22;42426;46.104;19.656;2024-02-04T10:47:38;333.60;2329.60
56123;DHT22;42426;46.104;19.656;2024-02-04T10:52:39;358.60;2252.80
56123;DHT22;42426;46.104;19.656;2024-02-04T10:55:08;333.70;2227.20
56123;DHT22;42426;46.104;19.656;2024-02-04T10:57:35;333.70;2201.60
56123;DHT22;42426;46.104;19.656;2024-02-04T11:00:02;333.60;2252.80
56123;DHT22;42426;46.104;19.656;2024-02-04T11:02:34;333.60;2227.20
56123;DHT22;42426;46.104;19.656;2024-02-04T11:05:00;358.40;2201.60
56123;DHT22;42426;46.104;19.656;2024-02-04T11:07:33;358.40;2201.60
56123;DHT22;42426;46.104;19.656;2024-02-04T11:10:02;358.40;2201.60
56123;DHT22;42426;46.104;19.656;2024-02-04T11:12:29;358.50;2227.20
56123;DHT22;42426;46.104;19.656;2024-02-04T11:14:59;358.50;2201.60
56123;DHT22;42426;46.104;19.656;2024-02-04T11:27:39;358.60;2150.40
56123;DHT22;42426;46.104;19.656;2024-02-04T11:30:07;358.60;2150.40
56123;DHT22;42426;46.104;19.656;2024-02-04T11:32:35;358.60;2150.40
56123;DHT22;42426;46.104;19.656;2024-02-04T11:35:02;358.70;2176.00
56123;DHT22;42426;46.104;19.656;2024-02-04T11:37:28;358.60;2124.80
56123;DHT22;42426;46.104;19.656;2024-02-04T11:39:57;358.70;2124.80
56123;DHT22;42426;46.104;19.656;2024-02-04T16:10:15;333.60;2329.60
56123;DHT22;42426;46.104;19.656;2024-02-04T16:13:03;333.40;2329.60
56123;DHT22;42426;46.104;19.656;2024-02-04T16:15:38;333.20;2329.60
56123;DHT22;42426;46.104;19.656;2024-02-04T16:18:06;333.30;2329.60
56123;DHT22;42426;46.104;19.656;2024-02-04T16:20:33;333.10;2329.60
56123;DHT22;42426;46.104;19.656;2024-02-04T16:23:03;333.10;2329.60
56123;DHT22;42426;46.104;19.656;2024-02-04T16:25:28;333.00;2329.60
56123;DHT22;42426;46.104;19.656;2024-02-04T16:27:57;332.80;2329.60
56123;DHT22;42426;46.104;19.656;2024-02-04T16:30:23;332.80;2329.60
56123;DHT22;42426;46.104;19.656;2024-02-04T16:32:49;308.10;2304.00
56123;DHT22;42426;46.104;19.656;2024-02-04T16:35:15;308.00;2304.00
56123;DHT22;42426;46.104;19.656;2024-02-04T16:37:41;307.90;2304.00
56123;DHT22;42426;46.104;19.656;2024-02-04T16:40:07;307.90;2304.00
56123;DHT22;42426;46.104;19.656;2024-02-04T16:42:36;307.80;2304.00
56123;DHT22;42426;46.104;19.656;2024-02-04T16:45:04;307.80;2304.00
56123;DHT22;42426;46.104;19.656;2024-02-04T16:47:30;307.90;2304.00
56123;DHT22;42426;46.104;19.656;2024-02-04T16:49:57;307.70;2304.00
56123;DHT22;42426;46.104;19.656;2024-02-04T16:52:23;307.60;2304.00
56123;DHT22;42426;46.104;19.656;2024-02-04T16:54:48;307.50;2304.00
56123;DHT22;42426;46.104;19.656;2024-02-04T16:57:14;307.50;2304.00
56123;DHT22;42426;46.104;19.656;2024-02-04T16:59:40;307.40;2304.00
56123;DHT22;42426;46.104;19.656;2024-02-04T17:02:14;307.40;2304.00
56123;DHT22;42426;46.104;19.656;2024-02-04T17:04:47;307.40;2304.00
56123;DHT22;42426;46.104;19.656;2024-02-04T17:07:18;307.30;2304.00
56123;DHT22;42426;46.104;19.656;2024-02-04T17:09:46;307.20;2304.00
56123;DHT22;42426;46.104;19.656;2024-02-04T17:12:13;307.20;2304.00
56123;DHT22;42426;46.104;19.656;2024-02-04T17:14:39;307.20;2304.00
56123;DHT22;42426;46.104;19.656;2024-02-04T17:17:12;282.40;2278.40
56123;DHT22;42426;46.104;19.656;2024-02-04T17:22:26;282.30;2278.40
56123;DHT22;42426;46.104;19.656;2024-02-04T17:25:02;282.20;2278.40
56123;DHT22;42426;46.104;19.656;2024-02-04T17:27:38;282.20;2278.40
56123;DHT22;42426;46.104;19.656;2024-02-04T17:30:06;282.30;2278.40
56123;DHT22;42426;46.104;19.656;2024-02-04T17:32:33;282.10;2278.40
56123;DHT22;42426;46.104;19.656;2024-02-04T17:34:59;282.10;2278.40
56123;DHT22;42426;46.104;19.656;2024-02-04T17:37:26;282.10;2278.40
56123;DHT22;42426;46.104;19.656;2024-02-04T17:39:52;282.00;2278.40
56123;DHT22;42426;46.104;19.656;2024-02-04T17:42:18;282.00;2278.40
56123;DHT22;42426;46.104;19.656;2024-02-04T17:44:43;281.90;2278.40
56123;DHT22;42426;46.104;19.656;2024-02-04T17:47:09;281.90;2278.40
56123;DHT22;42426;46.104;19.656;2024-02-04T17:49:35;281.90;2278.40
56123;DHT22;42426;46.104;19.656;2024-02-04T17:52:01;281.80;2278.40
56123;DHT22;42426;46.104;19.656;2024-02-04T17:54:27;281.80;2278.40
56123;DHT22;42426;46.104;19.656;2024-02-04T17:56:53;281.80;2278.40
56123;DHT22;42426;46.104;19.656;2024-02-04T17:59:20;281.80;2278.40
56123;DHT22;42426;46.104;19.656;2024-02-04T18:01:46;281.70;2278.40
56123;DHT22;42426;46.104;19.656;2024-02-04T18:04:17;281.70;2278.40
56123;DHT22;42426;46.104;19.656;2024-02-04T18:06:42;281.80;2278.40
56123;DHT22;42426;46.104;19.656;2024-02-04T18:09:08;281.80;2278.40
56123;DHT22;42426;46.104;19.656;2024-02-04T18:11:35;281.80;2278.40
56123;DHT22;42426;46.104;19.656;2024-02-04T18:14:01;281.70;2278.40
56123;DHT22;42426;46.104;19.656;2024-02-04T18:16:30;281.70;2278.40
56123;DHT22;42426;46.104;19.656;2024-02-04T18:18:56;281.60;2278.40
56123;DHT22;42426;46.104;19.656;2024-02-04T18:21:24;281.60;2278.40
